Time;durP1;ratioP1;P1;durP2;ratioP2;P2;SDS_P1;SDS_P2;PMS_P1;PMS_P2;Temp;Humidity;BMP_temperature;BMP_pressure;BME280_temperature;BME280_humidity;BME280_pressure;Samples;Min_cycle;Max_cycle;Signal;HPM_P1;HPM_P2
2023/09/29 00:00:20;;;;;;;2.17;1.23;;;;;;;19.56;nan;61580.00;5031089;28;20543;-64
2023/09/29 00:02:50;;;;;;;1.33;1.00;;;;;;;19.41;nan;61524.13;5029233;28;20175;-63
2023/09/29 00:05:18;;;;;;;1.25;1.13;;;;;;;19.28;nan;61652.47;5030808;28;20263;-66
2023/09/29 00:07:44;;;;;;;3.40;1.35;;;;;;;19.51;nan;61566.00;5031219;28;20210;-66
2023/09/29 00:10:14;;;;;;;1.00;0.90;;;;;;;19.35;nan;61566.56;5031115;28;20160;-64
2023/09/29 00:12:41;;;;;;;1.63;1.52;;;;;;;19.25;nan;61540.25;5031194;28;20206;-64
2023/09/29 00:15:08;;;;;;;0.90;0.77;;;;;;;19.22;nan;61542.06;5030970;28;20210;-63
2023/09/29 00:17:34;;;;;;;1.60;1.20;;;;;;;19.42;nan;61499.91;5033511;28;20269;-65
2023/09/29 00:20:00;;;;;;;1.67;1.27;;;;;;;19.47;nan;61561.50;5034620;28;20623;-62
2023/09/29 00:22:26;;;;;;;1.13;1.05;;;;;;;19.33;nan;61489.16;5034209;28;20171;-62
2023/09/29 00:24:52;;;;;;;2.05;1.48;;;;;;;19.21;nan;61626.41;5034350;28;20183;-64
2023/09/29 00:27:17;;;;;;;1.15;1.05;;;;;;;19.15;nan;61466.78;5034575;28;20606;-63
2023/09/29 00:29:42;;;;;;;1.35;1.25;;;;;;;18.94;nan;61455.97;5034404;28;20176;-65
2023/09/29 00:32:09;;;;;;;1.55;1.13;;;;;;;19.09;nan;61474.97;5034277;28;20172;-64
2023/09/29 00:34:36;;;;;;;1.23;1.13;;;;;;;19.05;nan;61478.78;5034243;28;20179;-63
2023/09/29 00:37:02;;;;;;;2.13;1.00;;;;;;;19.03;nan;61475.94;5034185;28;20164;-63
2023/09/29 00:39:27;;;;;;;1.20;1.10;;;;;;;18.88;nan;61431.06;5034157;28;20203;-63
2023/09/29 00:41:53;;;;;;;1.23;1.13;;;;;;;18.87;nan;61412.38;5034157;28;20194;-64
2023/09/29 00:44:19;;;;;;;0.95;0.90;;;;;;;19.00;nan;61506.78;5034126;28;20234;-65
2023/09/29 00:46:45;;;;;;;1.23;1.13;;;;;;;18.89;nan;61414.66;5033583;28;20207;-63
2023/09/29 00:49:11;;;;;;;2.00;1.42;;;;;;;18.87;nan;61675.88;5034055;28;20175;-63
2023/09/29 00:51:37;;;;;;;1.00;1.00;;;;;;;14.75;nan;61410.47;5033817;28;20647;-65
2023/09/29 00:54:08;;;;;;;1.33;1.23;;;;;;;18.58;nan;61358.91;5032562;28;20258;-64
2023/09/29 00:56:35;;;;;;;5.22;1.02;;;;;;;18.84;nan;61418.78;5033767;28;20748;-63
2023/09/29 00:59:02;;;;;;;1.20;1.10;;;;;;;18.69;nan;61498.16;5033246;28;20197;-63
2023/09/29 01:01:27;;;;;;;1.52;1.42;;;;;;;18.86;nan;61413.28;5033760;28;20257;-63
2023/09/29 01:03:52;;;;;;;1.30;1.20;;;;;;;18.93;nan;61426.38;5033629;28;20163;-63
2023/09/29 01:06:18;;;;;;;1.23;1.05;;;;;;;18.67;nan;61392.38;5033825;28;20195;-62
2023/09/29 01:08:44;;;;;;;1.42;1.13;;;;;;;18.84;nan;61413.59;5033685;28;20557;-63
2023/09/29 01:11:10;;;;;;;1.13;1.00;;;;;;;18.63;nan;61359.41;5033547;28;20210;-64
2023/09/29 01:13:40;;;;;;;0.98;0.75;;;;;;;18.55;nan;61360.69;5031816;28;20218;-64
2023/09/29 01:16:07;;;;;;;1.17;1.00;;;;;;;18.44;nan;61473.00;5033418;28;20163;-63
2023/09/29 01:18:34;;;;;;;1.55;1.25;;;;;;;18.41;nan;61324.72;5033332;28;20561;-64
2023/09/29 01:21:02;;;;;;;1.30;1.13;;;;;;;18.39;nan;61474.53;5033421;28;20174;-62
2023/09/29 01:23:30;;;;;;;1.20;1.10;;;;;;;18.30;nan;61314.34;5033708;28;20178;-63
2023/09/29 01:25:56;;;;;;;1.13;1.02;;;;;;;18.36;nan;61587.53;5033067;28;20313;-64
2023/09/29 01:28:21;;;;;;;1.08;1.05;;;;;;;18.20;nan;61321.16;5031868;28;20262;-64
2023/09/29 01:30:53;;;;;;;1.20;1.08;;;;;;;18.07;nan;61258.50;5033329;28;20630;-62
2023/09/29 01:33:18;;;;;;;1.23;1.00;;;;;;;18.06;nan;61244.44;5033301;28;20235;-64
2023/09/29 01:35:44;;;;;;;2.47;1.02;;;;;;;18.41;nan;61352.63;5032704;28;20642;-64
2023/09/29 01:38:09;;;;;;;1.05;0.90;;;;;;;18.20;nan;61321.72;5033168;28;20250;-63
2023/09/29 01:40:35;;;;;;;1.23;1.10;;;;;;;18.24;nan;61336.56;5033000;28;20634;-64
2023/09/29 01:43:00;;;;;;;1.35;1.00;;;;;;;18.25;nan;61332.53;5033033;28;20631;-65
2023/09/29 01:45:26;;;;;;;1.90;1.20;;;;;;;17.98;nan;61364.66;5032963;28;20180;-65
2023/09/29 01:47:52;;;;;;;1.80;1.35;;;;;;;18.09;nan;61286.03;5032693;28;20596;-63
2023/09/29 01:50:20;;;;;;;1.05;1.00;;;;;;;18.14;nan;61350.56;5033124;28;20175;-63
2023/09/29 01:52:47;;;;;;;1.20;1.10;;;;;;;17.94;nan;61215.38;5032969;28;20172;-63
2023/09/29 01:55:19;;;;;;;1.98;1.20;;;;;;;17.86;nan;61177.94;5032562;28;20186;-64
2023/09/29 01:57:47;;;;;;;2.80;1.13;;;;;;;18.13;nan;61489.63;5032770;28;20226;-63
2023/09/29 02:00:19;;;;;;;1.23;1.13;;;;;;;17.99;nan;61416.91;5032647;28;20167;-63
2023/09/29 02:02:46;;;;;;;1.35;1.10;;;;;;;18.08;nan;61267.34;5032531;28;20171;-65
2023/09/29 02:05:12;;;;;;;1.90;1.30;;;;;;;17.85;nan;61333.91;5032513;28;20183;-63
2023/09/29 02:07:39;;;;;;;1.42;1.30;;;;;;;17.89;nan;61328.06;5032166;28;20199;-65
2023/09/29 02:10:05;;;;;;;1.23;1.13;;;;;;;17.85;nan;61204.69;5032500;28;20657;-64
2023/09/29 02:12:31;;;;;;;1.40;1.30;;;;;;;17.64;nan;61158.88;5032376;28;20175;-63
2023/09/29 02:14:56;;;;;;;1.40;1.30;;;;;;;17.70;nan;61154.19;5032245;28;20180;-63
2023/09/29 02:17:22;;;;;;;1.42;1.33;;;;;;;17.63;nan;61136.50;5031013;28;20669;-64
2023/09/29 02:19:48;;;;;;;1.63;1.33;;;;;;;17.73;nan;61119.34;5032225;28;20163;-63
2023/09/29 02:22:16;;;;;;;1.38;1.27;;;;;;;17.69;nan;61134.97;5032200;28;20240;-64
2023/09/29 02:24:43;;;;;;;1.13;1.08;;;;;;;17.56;nan;61077.53;5031927;28;20159;-63
2023/09/29 02:27:09;;;;;;;1.58;1.23;;;;;;;17.91;nan;61279.19;5032248;28;20199;-65
2023/09/29 02:29:35;;;;;;;1.45;1.20;;;;;;;17.91;nan;61436.84;5032129;28;20645;-64
2023/09/29 02:32:00;;;;;;;1.85;1.15;;;;;;;17.89;nan;61183.91;5032044;28;20175;-64
2023/09/29 02:34:27;;;;;;;1.33;1.23;;;;;;;17.64;nan;61117.53;5032385;28;20182;-63
2023/09/29 02:36:53;;;;;;;1.85;1.10;;;;;;;17.64;nan;61140.78;5030322;28;20737;-63
2023/09/29 02:39:19;;;;;;;1.10;1.00;;;;;;;17.49;nan;61335.66;5031745;28;20160;-63
2023/09/29 02:41:45;;;;;;;0.95;0.95;;;;;;;17.51;nan;61066.72;5031956;28;20175;-64
2023/09/29 02:44:10;;;;;;;1.30;1.20;;;;;;;17.34;nan;61057.38;5031885;28;20195;-63
2023/09/29 02:46:36;;;;;;;6.20;1.42;;;;;;;17.58;nan;61136.59;5031757;28;20219;-64
2023/09/29 02:49:03;;;;;;;1.85;1.40;;;;;;;17.61;nan;61043.84;5031809;28;20662;-65
2023/09/29 02:51:29;;;;;;;1.55;1.30;;;;;;;17.86;nan;61319.50;5031498;28;20171;-65
2023/09/29 02:53:55;;;;;;;1.13;1.02;;;;;;;17.61;nan;61124.50;5031770;28;20526;-63
2023/09/29 02:56:23;;;;;;;2.08;1.30;;;;;;;17.62;nan;61215.47;5031572;28;20227;-63
2023/09/29 02:58:49;;;;;;;1.27;1.15;;;;;;;17.58;nan;61082.38;5031593;28;20230;-65
2023/09/29 03:01:19;;;;;;;1.10;1.10;;;;;;;17.75;nan;61348.44;5031919;28;20175;-64
2023/09/29 03:03:46;;;;;;;1.73;1.40;;;;;;;17.62;nan;61148.88;5031611;28;20727;-64
2023/09/29 03:06:16;;;;;;;1.20;1.10;;;;;;;17.85;nan;61187.13;5031661;28;20179;-64
2023/09/29 03:08:42;;;;;;;1.02;1.02;;;;;;;17.85;nan;61297.72;5031598;28;20160;-64
2023/09/29 03:11:09;;;;;;;1.73;1.63;;;;;;;17.69;nan;61140.69;5031850;28;20666;-64
2023/09/29 03:13:37;;;;;;;1.30;1.20;;;;;;;17.94;nan;61360.13;5030928;28;20186;-64
2023/09/29 03:16:06;;;;;;;1.83;1.23;;;;;;;17.89;nan;61273.78;5045759;28;20258;-62
2023/09/29 03:18:32;;;;;;;1.00;0.90;;;;;;;17.82;nan;61358.91;5034272;28;20191;-63
2023/09/29 03:20:59;;;;;;;0.90;0.90;;;;;;;17.94;nan;61277.41;5033339;28;20178;-66
2023/09/29 03:23:25;;;;;;;1.67;1.23;;;;;;;18.04;nan;61265.44;5051618;28;20171;-63
2023/09/29 03:25:52;;;;;;;1.40;1.30;;;;;;;17.98;nan;61284.53;5051718;28;20166;-65
2023/09/29 03:28:17;;;;;;;1.48;1.23;;;;;;;17.82;nan;61371.84;5051480;28;20228;-63
2023/09/29 03:30:43;;;;;;;1.00;1.00;;;;;;;17.92;nan;61284.94;5051718;28;20535;-65
2023/09/29 03:33:08;;;;;;;1.25;1.15;;;;;;;17.71;nan;61106.22;5051199;28;20159;-63
2023/09/29 03:35:33;;;;;;;1.33;0.95;;;;;;;17.88;nan;61218.41;5051054;28;20236;-65
2023/09/29 03:38:00;;;;;;;1.40;1.00;;;;;;;17.65;nan;61265.34;5050974;28;20167;-64
2023/09/29 03:40:26;;;;;;;1.00;0.90;;;;;;;17.80;nan;61147.34;5051214;28;20186;-62
2023/09/29 03:42:52;;;;;;;1.67;1.20;;;;;;;17.80;nan;61328.81;5051237;28;20175;-65
2023/09/29 03:45:18;;;;;;;1.25;1.10;;;;;;;17.76;nan;61354.72;5051155;28;20187;-64
2023/09/29 03:47:46;;;;;;;1.23;1.02;;;;;;;17.51;nan;61053.81;5050529;28;20217;-62
2023/09/29 03:50:12;;;;;;;0.85;0.85;;;;;;;17.47;nan;61080.31;5042377;28;20172;-64
2023/09/29 03:52:39;;;;;;;1.60;1.10;;;;;;;17.45;nan;61145.19;5033991;28;20182;-64
2023/09/29 03:55:04;;;;;;;0.98;0.90;;;;;;;17.61;nan;61075.41;5034993;28;20179;-65
2023/09/29 03:57:32;;;;;;;1.98;1.15;;;;;;;17.57;nan;61045.03;5034960;28;20238;-64
2023/09/29 03:59:57;;;;;;;0.98;0.98;;;;;;;17.60;nan;61025.22;5035290;28;20175;-65
2023/09/29 04:02:23;;;;;;;1.67;1.27;;;;;;;17.59;nan;61057.66;5034730;28;20172;-65
2023/09/29 04:04:48;;;;;;;0.63;0.63;;;;;;;17.41;nan;61114.28;5034765;28;20182;-66
2023/09/29 04:07:15;;;;;;;1.23;1.13;;;;;;;17.52;nan;61157.69;5034727;28;20573;-66
2023/09/29 04:09:41;;;;;;;1.35;1.25;;;;;;;17.51;nan;61019.66;5034678;28;20167;-63
2023/09/29 04:12:06;;;;;;;0.70;0.70;;;;;;;17.39;nan;61138.41;5034277;28;20172;-65
2023/09/29 04:14:32;;;;;;;1.20;1.10;;;;;;;17.55;nan;61112.56;5034829;28;20176;-65
2023/09/29 04:16:58;;;;;;;0.70;0.70;;;;;;;17.41;nan;61101.38;5034159;28;20179;-65
2023/09/29 04:19:23;;;;;;;1.25;1.15;;;;;;;17.36;nan;61155.72;5033785;28;20266;-65
2023/09/29 04:21:48;;;;;;;1.25;1.15;;;;;;;17.45;nan;61154.94;5046903;28;20784;-67
2023/09/29 04:24:14;;;;;;;1.25;1.00;;;;;;;17.38;nan;61082.53;5037979;28;20187;-63
2023/09/29 04:26:39;;;;;;;1.17;1.08;;;;;;;17.59;nan;61279.25;5033653;28;20203;-64
2023/09/29 04:29:05;;;;;;;1.27;1.17;;;;;;;17.43;nan;61070.63;5054630;28;20684;-65
2023/09/29 04:31:30;;;;;;;1.30;1.20;;;;;;;17.60;nan;61138.31;5053951;28;20179;-63
2023/09/29 04:33:56;;;;;;;1.00;1.00;;;;;;;17.65;nan;61115.53;5053998;28;20163;-65
2023/09/29 04:36:21;;;;;;;1.98;1.50;;;;;;;17.50;nan;61112.09;5054013;28;20198;-66
2023/09/29 04:38:47;;;;;;;0.80;0.80;;;;;;;17.67;nan;61175.16;5048914;28;20237;-67
2023/09/29 04:41:14;;;;;;;1.30;1.20;;;;;;;17.86;nan;61182.53;5038976;28;20192;-64
2023/09/29 04:43:39;;;;;;;1.45;0.98;;;;;;;17.77;nan;61167.78;5054112;28;20278;-64
2023/09/29 04:46:05;;;;;;;1.23;1.13;;;;;;;17.88;nan;61218.41;5037716;28;20244;-63
2023/09/29 04:48:30;;;;;;;1.58;1.20;;;;;;;18.06;nan;61267.69;5033152;28;20540;-65
2023/09/29 04:50:56;;;;;;;1.05;0.95;;;;;;;18.19;nan;61299.34;5047246;28;20689;-65
2023/09/29 04:53:21;;;;;;;0.80;0.80;;;;;;;18.29;nan;61352.00;5041682;28;20202;-66
2023/09/29 04:55:47;;;;;;;1.95;0.98;;;;;;;18.31;nan;61334.13;5042124;28;20182;-64
2023/09/29 04:58:12;;;;;;;0.82;0.82;;;;;;;18.36;nan;61324.25;5044271;28;20201;-63
2023/09/29 05:00:38;;;;;;;0.98;0.98;;;;;;;18.47;nan;61538.47;5047052;28;20182;-62
2023/09/29 05:03:03;;;;;;;2.40;0.82;;;;;;;18.57;nan;61683.25;5042068;28;20164;-61
2023/09/29 05:05:29;;;;;;;1.77;0.95;;;;;;;18.68;nan;61473.16;5042603;28;20178;-65
2023/09/29 05:07:54;;;;;;;1.13;1.02;;;;;;;18.61;nan;61638.63;5043807;28;20551;-64
2023/09/29 05:10:20;;;;;;;1.42;1.30;;;;;;;18.95;nan;61796.88;5038005;28;20194;-63
2023/09/29 05:12:45;;;;;;;1.23;1.00;;;;;;;18.90;nan;61627.50;5033449;28;20168;-63
2023/09/29 05:15:11;;;;;;;1.27;0.98;;;;;;;19.16;nan;61566.34;5033228;28;20182;-65
2023/09/29 05:17:37;;;;;;;1.40;1.30;;;;;;;19.05;nan;61506.72;5033144;28;20175;-64
2023/09/29 05:20:02;;;;;;;0.93;0.90;;;;;;;19.18;nan;61555.66;5033298;28;20164;-64
2023/09/29 05:22:28;;;;;;;2.03;1.83;;;;;;;19.39;nan;61687.69;5031901;28;20187;-65
2023/09/29 05:24:53;;;;;;;1.42;1.23;;;;;;;19.56;nan;61641.66;5035201;28;20184;-64
2023/09/29 05:27:20;;;;;;;1.30;1.20;;;;;;;19.73;nan;61627.22;5044173;28;20207;-65
2023/09/29 05:29:45;;;;;;;3.30;2.28;;;;;;;19.89;nan;61883.94;5033012;28;20634;-63
2023/09/29 05:32:11;;;;;;;1.20;1.02;;;;;;;19.93;nan;61621.34;5046512;28;20197;-65
2023/09/29 05:34:36;;;;;;;1.10;1.00;;;;;;;20.16;nan;61797.34;5053247;28;20659;-65
2023/09/29 05:37:02;;;;;;;7.55;1.23;;;;;;;20.38;nan;61840.53;5052883;28;20261;-65
2023/09/29 05:39:27;;;;;;;1.45;1.15;;;;;;;20.50;nan;61858.78;5052691;28;20199;-66
2023/09/29 05:41:52;;;;;;;1.13;1.00;;;;;;;20.72;nan;61735.78;5053228;28;20206;-64
2023/09/29 05:44:18;;;;;;;3.97;1.45;;;;;;;21.02;nan;61810.81;5052798;28;20638;-66
2023/09/29 05:46:43;;;;;;;1.02;0.93;;;;;;;21.14;nan;61900.38;5052045;28;20290;-66
2023/09/29 05:49:10;;;;;;;1.10;1.00;;;;;;;21.21;nan;61834.47;5052646;28;20560;-66
2023/09/29 05:51:36;;;;;;;1.20;1.10;;;;;;;21.63;nan;61848.38;5052552;28;20175;-66
2023/09/29 05:54:03;;;;;;;1.23;1.10;;;;;;;21.81;nan;61905.25;5052501;28;20599;-65
2023/09/29 05:56:31;;;;;;;1.10;1.00;;;;;;;21.97;nan;61912.47;5052643;28;20601;-66
2023/09/29 05:58:56;;;;;;;1.42;1.30;;;;;;;21.88;nan;61871.56;5052285;28;20236;-64
2023/09/29 06:01:23;;;;;;;7.30;3.17;;;;;;;22.29;nan;62006.13;5052561;28;20622;-67
2023/09/29 06:03:48;;;;;;;2.00;1.23;;;;;;;22.42;nan;61991.72;5031271;28;20641;-65
2023/09/29 06:06:13;;;;;;;1.52;1.20;;;;;;;22.50;nan;61940.91;5049184;28;20179;-63
2023/09/29 06:08:40;;;;;;;0.82;0.82;;;;;;;22.78;nan;61959.75;5033026;28;20650;-64
2023/09/29 06:11:05;;;;;;;1.48;1.10;;;;;;;22.90;nan;62009.28;5036561;28;20240;-64
2023/09/29 06:13:32;;;;;;;0.88;0.82;;;;;;;23.08;nan;62070.91;5051897;28;20168;-64
2023/09/29 06:15:57;;;;;;;1.40;1.15;;;;;;;23.05;nan;62044.03;5051989;28;20174;-71
2023/09/29 06:18:24;;;;;;;5.47;1.73;;;;;;;22.85;nan;61970.31;5052003;28;20163;-65
2023/09/29 06:20:49;;;;;;;1.00;0.88;;;;;;;22.96;nan;62078.09;5051754;28;20163;-66
2023/09/29 06:23:14;;;;;;;1.00;0.80;;;;;;;22.92;nan;62159.56;5051983;28;20239;-65
2023/09/29 06:25:40;;;;;;;1.08;1.00;;;;;;;22.84;nan;62029.09;5051990;28;20276;-64
2023/09/29 06:28:05;;;;;;;1.20;1.10;;;;;;;23.02;nan;62061.50;5039402;28;20246;-67
2023/09/29 06:30:31;;;;;;;1.45;1.20;;;;;;;23.03;nan;62065.25;5040146;28;20832;-66
2023/09/29 06:32:57;;;;;;;1.58;1.42;;;;;;;23.13;nan;62128.75;5037103;28;20608;-66
2023/09/29 06:35:22;;;;;;;1.08;0.98;;;;;;;23.12;nan;62018.69;5031911;28;20175;-68
2023/09/29 06:37:47;;;;;;;0.75;0.75;;;;;;;23.12;nan;62143.28;5031917;28;20175;-65
2023/09/29 06:40:14;;;;;;;1.65;1.10;;;;;;;22.95;nan;62035.84;5031896;28;20696;-64
2023/09/29 06:42:39;;;;;;;1.17;1.00;;;;;;;22.82;nan;62104.44;5031715;28;20167;-65
2023/09/29 06:45:06;;;;;;;9.98;2.08;;;;;;;23.14;nan;62093.97;5031707;28;20168;-64
2023/09/29 06:47:32;;;;;;;2.78;1.80;;;;;;;23.06;nan;62068.66;5031441;28;20199;-65
2023/09/29 06:49:57;;;;;;;1.38;1.25;;;;;;;23.08;nan;62057.88;5029369;28;20190;-66
2023/09/29 06:52:24;;;;;;;0.85;0.85;;;;;;;23.06;nan;62178.13;5042547;28;20276;-66
2023/09/29 06:54:49;;;;;;;0.82;0.82;;;;;;;23.09;nan;62148.22;5038507;28;20163;-65
2023/09/29 06:57:14;;;;;;;2.30;1.10;;;;;;;23.19;nan;62161.66;5029502;28;20309;-64
2023/09/29 06:59:40;;;;;;;1.70;1.23;;;;;;;23.28;nan;62044.16;5031078;28;20211;-67
2023/09/29 07:02:07;;;;;;;0.80;0.80;;;;;;;23.24;nan;62071.47;5028493;28;20712;-64
2023/09/29 07:04:33;;;;;;;2.40;1.50;;;;;;;23.04;nan;62155.00;5031007;28;20171;-64
2023/09/29 07:06:58;;;;;;;1.17;0.93;;;;;;;23.12;nan;62012.91;5031161;28;20199;-65
2023/09/29 07:09:24;;;;;;;0.88;0.88;;;;;;;23.08;nan;62113.19;5031154;28;20163;-65
2023/09/29 07:11:50;;;;;;;0.80;0.80;;;;;;;23.11;nan;62032.63;5031478;28;20659;-63
2023/09/29 07:14:16;;;;;;;1.30;1.13;;;;;;;23.48;nan;62230.72;5031636;28;20182;-65
2023/09/29 07:16:42;;;;;;;0.82;0.82;;;;;;;23.39;nan;62080.16;5031431;28;20555;-65
2023/09/29 07:19:10;;;;;;;1.23;1.13;;;;;;;23.54;nan;62122.75;5031172;28;20167;-65
2023/09/29 07:21:36;;;;;;;1.45;0.98;;;;;;;23.48;nan;62186.94;5032145;28;20254;-64
2023/09/29 07:24:01;;;;;;;1.17;1.05;;;;;;;23.25;nan;62043.34;5031639;28;20521;-65
2023/09/29 07:26:27;;;;;;;1.25;0.98;;;;;;;23.24;nan;62227.34;5035338;28;20199;-65
2023/09/29 07:28:54;;;;;;;0.80;0.80;;;;;;;23.34;nan;62098.50;5035767;28;20162;-64
2023/09/29 07:31:20;;;;;;;1.25;1.17;;;;;;;23.53;nan;62117.00;5035673;28;20638;-66
2023/09/29 07:33:45;;;;;;;3.40;1.55;;;;;;;23.57;nan;62134.59;5035864;28;20172;-66
2023/09/29 07:36:11;;;;;;;0.90;0.80;;;;;;;23.55;nan;62106.22;5035979;28;20171;-66
2023/09/29 07:38:36;;;;;;;1.30;1.10;;;;;;;23.47;nan;62206.66;5035919;28;20183;-64
2023/09/29 07:41:04;;;;;;;1.38;0.93;;;;;;;23.44;nan;62111.97;5035988;28;20171;-64
2023/09/29 07:43:30;;;;;;;2.15;1.23;;;;;;;23.40;nan;62018.69;5035363;28;20183;-65
2023/09/29 07:45:55;;;;;;;1.08;0.95;;;;;;;23.63;nan;62110.09;5034307;28;20183;-65
2023/09/29 07:48:21;;;;;;;1.48;1.38;;;;;;;23.61;nan;62227.84;5034200;28;20583;-65
2023/09/29 07:50:47;;;;;;;2.30;1.88;;;;;;;23.52;nan;62206.56;5035405;28;20172;-64
2023/09/29 07:53:12;;;;;;;1.45;1.15;;;;;;;23.94;nan;62287.88;5035463;28;20202;-63
2023/09/29 07:55:38;;;;;;;0.70;0.70;;;;;;;24.05;nan;62300.97;5035439;28;20198;-66
2023/09/29 07:58:03;;;;;;;1.15;0.80;;;;;;;23.93;nan;62263.78;5034861;28;20183;-67
2023/09/29 08:00:29;;;;;;;1.83;1.15;;;;;;;24.39;nan;62210.69;5035150;28;20191;-65
2023/09/29 08:02:54;;;;;;;0.80;0.80;;;;;;;24.70;nan;62381.94;5035843;28;20167;-65
2023/09/29 08:05:20;;;;;;;3.20;0.80;;;;;;;24.89;nan;62269.78;5035126;28;20179;-64
2023/09/29 08:07:46;;;;;;;0.70;0.70;;;;;;;24.76;nan;62276.41;5035137;28;20631;-65
2023/09/29 08:10:11;;;;;;;0.80;0.80;;;;;;;24.74;nan;62239.59;5034915;28;20179;-68
2023/09/29 08:12:37;;;;;;;1.48;1.30;;;;;;;23.05;nan;62174.38;5034599;28;20627;-66
2023/09/29 08:15:06;;;;;;;1.85;1.10;;;;;;;24.89;nan;62254.66;5034344;28;20171;-64
2023/09/29 08:17:32;;;;;;;1.13;0.93;;;;;;;24.77;nan;62230.50;5034732;28;20210;-64
2023/09/29 08:19:58;;;;;;;1.20;1.02;;;;;;;25.07;nan;62277.81;5033442;28;20179;-64
2023/09/29 08:22:24;;;;;;;1.50;1.00;;;;;;;25.23;nan;62436.19;5033211;28;20171;-66
2023/09/29 08:24:49;;;;;;;0.80;0.80;;;;;;;25.22;nan;62390.56;5034521;28;20166;-66
2023/09/29 08:27:15;;;;;;;0.77;0.77;;;;;;;25.10;nan;62427.13;5034433;28;20203;-66
2023/09/29 08:29:40;;;;;;;1.00;0.90;;;;;;;25.42;nan;62400.91;5034156;28;20186;-66
2023/09/29 08:32:06;;;;;;;1.95;0.80;;;;;;;25.23;nan;62326.88;5033462;28;20219;-64
2023/09/29 08:34:34;;;;;;;1.20;1.10;;;;;;;25.37;nan;62334.44;5034186;28;20171;-64
2023/09/29 08:37:00;;;;;;;0.70;0.70;;;;;;;25.61;nan;62408.41;5033718;28;20176;-67
2023/09/29 08:39:25;;;;;;;3.22;1.33;;;;;;;25.50;nan;62419.94;5034517;28;20175;-65
2023/09/29 08:41:59;;;;;;;0.88;0.85;;;;;;;25.34;nan;62462.41;5033833;28;20251;-64
2023/09/29 08:44:29;;;;;;;1.15;1.10;;;;;;;25.63;nan;62332.16;5033910;28;20159;-65
2023/09/29 08:47:00;;;;;;;1.00;1.00;;;;;;;25.87;nan;62501.56;5034205;28;20191;-65
2023/09/29 08:49:26;;;;;;;1.80;1.50;;;;;;;25.74;nan;62481.44;5034114;28;20166;-67
2023/09/29 08:51:53;;;;;;;2.50;1.05;;;;;;;26.13;nan;62556.91;5034166;28;20160;-65
2023/09/29 08:54:20;;;;;;;0.95;0.90;;;;;;;26.10;nan;62561.34;5033866;28;20171;-65
2023/09/29 08:56:48;;;;;;;1.02;0.98;;;;;;;26.36;nan;62430.69;5033558;28;20227;-65
2023/09/29 08:59:15;;;;;;;0.80;0.80;;;;;;;26.56;nan;62676.41;5033819;28;20673;-65
2023/09/29 09:01:40;;;;;;;0.70;0.70;;;;;;;26.60;nan;62481.72;5033661;28;20168;-66
2023/09/29 09:04:06;;;;;;;0.80;0.80;;;;;;;26.78;nan;62502.28;5034146;28;20514;-65
2023/09/29 09:06:31;;;;;;;1.13;0.90;;;;;;;26.70;nan;62459.06;5034100;28;20728;-66
2023/09/29 09:08:57;;;;;;;0.77;0.77;;;;;;;26.87;nan;62551.38;5033644;28;20171;-63
2023/09/29 09:11:23;;;;;;;1.63;1.25;;;;;;;26.95;nan;62555.28;5033712;28;20175;-65
2023/09/29 09:13:59;;;;;;;1.60;1.40;;;;;;;27.17;nan;62585.13;5033882;28;20155;-65
2023/09/29 09:16:29;;;;;;;1.23;1.02;;;;;;;27.35;nan;62773.75;5033445;28;20213;-65
2023/09/29 09:18:55;;;;;;;1.23;0.95;;;;;;;27.20;nan;62618.00;5033546;28;20163;-65
2023/09/29 09:21:34;;;;;;;1.08;0.80;;;;;;;27.57;nan;62633.56;5033397;28;20198;-64
2023/09/29 09:23:59;;;;;;;0.80;0.80;;;;;;;27.44;nan;62602.34;5033163;28;20163;-65
2023/09/29 09:26:28;;;;;;;1.27;1.08;;;;;;;27.84;nan;62605.56;5033198;28;20171;-64
2023/09/29 09:28:53;;;;;;;1.10;1.00;;;;;;;28.11;nan;62765.81;5032728;28;20225;-65
2023/09/29 09:31:19;;;;;;;1.00;0.90;;;;;;;27.92;nan;62667.84;5033252;28;20171;-64
2023/09/29 09:33:49;;;;;;;3.33;1.20;;;;;;;28.25;nan;62768.19;5032700;28;20170;-65
2023/09/29 09:36:15;;;;;;;1.85;1.05;;;;;;;27.84;nan;62778.97;5032338;28;20253;-65
2023/09/29 09:38:40;;;;;;;2.58;1.02;;;;;;;27.88;nan;62615.41;5032893;28;20185;-64
2023/09/29 09:41:06;;;;;;;1.52;1.13;;;;;;;27.79;nan;62731.19;5032817;28;20171;-64
2023/09/29 09:43:35;;;;;;;1.13;1.00;;;;;;;27.59;nan;62575.47;5031490;28;20711;-64
2023/09/29 09:46:08;;;;;;;2.05;1.25;;;;;;;27.66;nan;62624.91;5032880;28;20174;-63
2023/09/29 09:48:50;;;;;;;1.60;1.40;;;;;;;28.16;nan;62759.91;5031787;28;20190;-64
2023/09/29 09:51:41;;;;;;;2.17;1.50;;;;;;;28.20;nan;62711.94;5032950;28;20202;-64
2023/09/29 09:54:08;;;;;;;1.45;1.05;;;;;;;28.32;nan;62830.84;5032612;28;20167;-65
2023/09/29 09:56:55;;;;;;;1.52;1.30;;;;;;;28.48;nan;62757.75;5031869;28;20218;-65
2023/09/29 09:59:21;;;;;;;1.70;0.88;;;;;;;28.54;nan;62874.50;5032204;28;20175;-64
2023/09/29 10:01:48;;;;;;;1.10;1.00;;;;;;;28.48;nan;62815.03;5032436;28;20179;-64
2023/09/29 10:04:14;;;;;;;1.20;1.10;;;;;;;28.63;nan;62866.44;5032574;28;20151;-66
2023/09/29 10:06:45;;;;;;;1.65;1.20;;;;;;;28.36;nan;62780.22;5032490;28;20210;-69
2023/09/29 10:09:11;;;;;;;1.90;1.30;;;;;;;28.26;nan;62766.13;5032437;28;20174;-64
2023/09/29 10:11:42;;;;;;;1.38;1.00;;;;;;;28.50;nan;62998.78;5031934;28;20163;-64
2023/09/29 10:14:09;;;;;;;1.30;0.98;;;;;;;28.73;nan;62777.94;5032339;28;20246;-66
2023/09/29 10:16:35;;;;;;;1.92;1.15;;;;;;;28.70;nan;62774.50;5032071;28;20186;-67
2023/09/29 10:19:06;;;;;;;3.95;1.85;;;;;;;28.50;nan;62888.91;5032184;28;20273;-65
2023/09/29 10:21:43;;;;;;;1.40;1.25;;;;;;;28.84;nan;62827.41;5032489;28;20174;-65
2023/09/29 10:24:11;;;;;;;1.35;1.17;;;;;;;28.60;nan;62820.91;5030601;28;20645;-66
2023/09/29 10:26:45;;;;;;;1.10;0.90;;;;;;;28.88;nan;62832.00;5031589;28;20244;-65
2023/09/29 10:29:18;;;;;;;1.30;0.98;;;;;;;28.99;nan;62834.09;5032185;28;20175;-64
2023/09/29 10:31:44;;;;;;;1.02;0.93;;;;;;;29.11;nan;62952.03;5032215;28;20181;-65
2023/09/29 10:34:18;;;;;;;1.30;0.98;;;;;;;29.26;nan;62908.69;5032056;28;20171;-66
2023/09/29 10:36:44;;;;;;;1.30;1.10;;;;;;;29.05;nan;62811.44;5031790;28;20188;-65
2023/09/29 10:39:10;;;;;;;1.63;1.25;;;;;;;29.15;nan;62901.31;5031895;28;20173;-65
2023/09/29 10:41:37;;;;;;;1.50;1.05;;;;;;;29.25;nan;62862.78;5032236;28;20178;-66
2023/09/29 10:44:04;;;;;;;0.80;0.80;;;;;;;29.09;nan;62837.09;5032223;28;20181;-65
2023/09/29 10:46:30;;;;;;;0.77;0.77;;;;;;;28.74;nan;62712.75;5032194;28;20207;-66
2023/09/29 10:48:55;;;;;;;1.27;1.05;;;;;;;29.15;nan;62935.56;5031712;28;20269;-65
2023/09/29 10:51:21;;;;;;;1.38;1.13;;;;;;;29.05;nan;62921.44;5031365;28;20629;-65
2023/09/29 10:53:47;;;;;;;1.65;1.08;;;;;;;29.11;nan;62894.09;5032071;28;20175;-65
2023/09/29 10:56:18;;;;;;;1.13;0.93;;;;;;;29.25;nan;62965.47;5031692;28;20225;-66
2023/09/29 10:58:44;;;;;;;1.33;1.10;;;;;;;29.19;nan;62887.47;5032175;28;20588;-64
2023/09/29 11:01:11;;;;;;;1.17;0.90;;;;;;;29.12;nan;63003.19;5031596;28;20627;-64
2023/09/29 11:03:37;;;;;;;1.40;1.10;;;;;;;29.27;nan;62904.59;5032068;28;20176;-65
2023/09/29 11:06:08;;;;;;;1.20;1.00;;;;;;;29.49;nan;63016.81;5032262;28;20171;-65
2023/09/29 11:08:42;;;;;;;3.22;1.48;;;;;;;29.53;nan;63147.28;5032662;28;20229;-66
2023/09/29 11:11:09;;;;;;;2.33;1.30;;;;;;;29.55;nan;63028.97;5032586;28;20221;-65
2023/09/29 11:13:37;;;;;;;1.50;1.20;;;;;;;29.71;nan;62936.69;5031967;28;20179;-66
2023/09/29 11:16:14;;;;;;;1.20;1.10;;;;;;;29.77;nan;62964.09;5031372;28;20189;-62
2023/09/29 11:18:41;;;;;;;1.70;1.15;;;;;;;29.36;nan;62878.06;5031683;28;20188;-64
2023/09/29 11:21:10;;;;;;;1.92;1.10;;;;;;;28.92;nan;62801.81;5030800;28;20205;-63
2023/09/29 11:24:06;;;;;;;2.05;1.30;;;;;;;29.14;nan;62921.22;5030392;28;20189;-62
2023/09/29 11:26:32;;;;;;;1.50;1.20;;;;;;;29.16;nan;62899.84;5022780;28;20191;-63
2023/09/29 11:28:58;;;;;;;3.30;1.17;;;;;;;29.39;nan;62952.63;5031163;28;20178;-64
2023/09/29 11:31:24;;;;;;;1.52;1.20;;;;;;;29.59;nan;62996.13;5031209;28;20175;-63
2023/09/29 11:33:50;;;;;;;1.85;0.98;;;;;;;29.60;nan;63055.22;5031302;28;20254;-63
2023/09/29 11:36:21;;;;;;;1.10;1.00;;;;;;;29.73;nan;63170.91;5031375;28;20265;-63
2023/09/29 11:38:47;;;;;;;1.13;0.95;;;;;;;26.53;nan;64342.81;5031407;28;20167;-62
2023/09/29 11:41:15;;;;;;;2.22;1.50;;;;;;;29.74;nan;62900.03;5031066;28;20193;-63
2023/09/29 11:43:41;;;;;;;1.20;1.10;;;;;;;29.91;nan;62948.56;5031378;28;20179;-62
2023/09/29 11:46:07;;;;;;;1.38;0.95;;;;;;;29.73;nan;62980.59;5030854;28;20171;-63
2023/09/29 11:48:32;;;;;;;1.33;1.13;;;;;;;29.73;nan;63181.44;5031275;28;20212;-63